createdAt,value
2022-12-14T00:00:51.942Z,25.30
2022-12-14T00:01:55.168Z,22.70
2022-12-14T00:02:57.965Z,23.33
2022-12-14T00:04:00.784Z,22.50
2022-12-14T00:05:03.530Z,23.13
2022-12-14T00:06:22.404Z,21.90
2022-12-14T00:07:24.997Z,24.10
2022-12-14T00:08:28.069Z,24.85
2022-12-14T00:09:30.952Z,23.17
2022-12-14T00:10:34.964Z,22.83
2022-12-14T00:11:37.637Z,23.30
2022-12-14T00:12:40.537Z,24.40
2022-12-14T00:13:44.043Z,23.75
2022-12-14T00:14:51.851Z,22.42
2022-12-14T00:15:54.698Z,22.38
2022-12-14T00:16:57.351Z,24.23
2022-12-14T00:18:00.434Z,24.35
2022-12-14T00:19:05.471Z,23.27
2022-12-14T00:20:09.341Z,25.58
2022-12-14T00:21:13.849Z,23.35
2022-12-14T00:22:16.480Z,22.40
2022-12-14T00:23:19.211Z,23.48
2022-12-14T00:24:21.943Z,23.98
2022-12-14T00:25:25.212Z,25.88
2022-12-14T00:26:32.005Z,22.27
2022-12-14T00:27:34.936Z,25.13
2022-12-14T00:28:38.477Z,24.50
2022-12-14T00:29:41.313Z,23.40
2022-12-14T00:30:43.959Z,25.00
2022-12-14T00:31:48.739Z,25.77
2022-12-14T00:32:51.817Z,24.08
2022-12-14T00:33:55.430Z,23.40
2022-12-14T00:34:58.446Z,23.55
2022-12-14T00:36:02.108Z,23.75
2022-12-14T00:37:04.946Z,25.92
2022-12-14T00:38:07.623Z,25.77
2022-12-14T00:39:10.398Z,25.88
2022-12-14T00:40:13.089Z,23.33
2022-12-14T00:41:15.965Z,25.45
2022-12-14T00:42:18.638Z,25.27
2022-12-14T00:43:22.578Z,22.38
2022-12-14T00:44:25.218Z,24.30
2022-12-14T00:45:27.957Z,25.20
2022-12-14T00:46:30.628Z,27.17
2022-12-14T00:47:39.016Z,24.95
2022-12-14T00:48:43.510Z,17.10
2022-12-14T00:49:46.240Z,27.55
2022-12-14T00:50:52.803Z,24.98
2022-12-14T00:51:55.902Z,26.65
2022-12-14T00:52:58.483Z,25.30
2022-12-14T00:54:01.135Z,24.95
2022-12-14T00:55:04.047Z,25.90
2022-12-14T00:56:08.284Z,26.55
2022-12-14T00:57:11.166Z,24.17
2022-12-14T00:58:15.459Z,26.70
2022-12-14T00:59:22.902Z,26.33
2022-12-14T01:00:28.424Z,26.35
2022-12-14T01:01:31.148Z,26.67
2022-12-14T01:02:33.960Z,24.50
2022-12-14T01:03:36.958Z,26.08
2022-12-14T01:04:39.764Z,27.25
2022-12-14T01:05:42.476Z,26.42
2022-12-14T01:06:53.390Z,25.25
2022-12-14T01:07:56.601Z,28.25
2022-12-14T01:08:59.314Z,27.38
2022-12-14T01:10:02.088Z,27.92
2022-12-14T01:11:06.541Z,27.80
2022-12-14T01:12:09.307Z,28.08
2022-12-14T01:13:12.179Z,27.40
2022-12-14T01:14:17.103Z,26.88
2022-12-14T01:15:19.775Z,25.67
2022-12-14T01:16:22.519Z,27.88
2022-12-14T01:17:25.330Z,26.52
2022-12-14T01:18:27.928Z,27.10
2022-12-14T01:19:31.127Z,29.63
2022-12-14T01:20:33.775Z,26.77
2022-12-14T01:21:36.371Z,27.80
2022-12-14T01:22:39.199Z,27.92
2022-12-14T01:23:42.954Z,26.83
2022-12-14T01:24:45.582Z,26.17
2022-12-14T01:25:48.962Z,26.80
2022-12-14T01:26:51.702Z,28.92
2022-12-14T01:27:54.617Z,26.15
2022-12-14T01:28:59.411Z,28.75
2022-12-14T01:30:02.253Z,26.33
2022-12-14T01:31:09.596Z,26.33
2022-12-14T01:32:12.380Z,26.65
2022-12-14T01:33:15.003Z,26.42
2022-12-14T01:34:18.055Z,26.23
2022-12-14T01:35:20.766Z,26.77
2022-12-14T01:36:26.342Z,26.02
2022-12-14T01:37:28.995Z,27.25
2022-12-14T01:38:31.902Z,26.75
2022-12-14T01:39:34.536Z,28.05
2022-12-14T01:40:37.428Z,26.38
2022-12-14T01:41:45.405Z,25.15
2022-12-14T01:42:48.118Z,26.77
2022-12-14T01:43:58.874Z,26.50
2022-12-14T01:46:04.291Z,24.63
2022-12-14T01:47:27.072Z,27.13
2022-12-14T01:48:29.892Z,27.42
2022-12-14T01:49:38.792Z,26.92
2022-12-14T01:50:44.498Z,26.40
2022-12-14T01:51:52.657Z,25.08
2022-12-14T01:53:00.807Z,27.85
2022-12-14T01:54:06.858Z,27.50
2022-12-14T01:55:22.896Z,27.52
2022-12-14T01:56:25.943Z,28.30
2022-12-14T01:57:36.855Z,28.20
2022-12-14T01:58:40.301Z,24.25
2022-12-14T01:59:44.439Z,27.27
2022-12-14T02:00:47.265Z,26.27
2022-12-14T02:01:50.520Z,26.50
2022-12-14T02:03:26.272Z,28.27
2022-12-14T02:04:29.755Z,24.63
2022-12-14T02:05:35.666Z,27.88
2022-12-14T02:06:40.938Z,26.90
2022-12-14T02:07:48.975Z,26.15
2022-12-14T02:08:53.189Z,29.42
2022-12-14T02:09:58.510Z,25.98
2022-12-14T02:11:02.437Z,25.50
2022-12-14T02:12:10.933Z,25.42
2022-12-14T02:13:36.603Z,26.08
2022-12-14T02:14:39.629Z,25.35
2022-12-14T02:15:42.646Z,24.58
2022-12-14T02:16:45.308Z,25.02
2022-12-14T02:17:48.693Z,26.77
2022-12-14T02:18:51.348Z,24.63
2022-12-14T02:19:54.184Z,28.58
2022-12-14T02:21:11.593Z,24.58
2022-12-14T02:22:42.217Z,25.83
2022-12-14T02:24:19.278Z,25.55
2022-12-14T02:25:39.495Z,24.20
2022-12-14T02:27:06.983Z,25.30
2022-12-14T02:28:15.662Z,24.75
2022-12-14T02:29:24.354Z,23.95
2022-12-14T02:30:27.687Z,25.67
2022-12-14T02:32:11.371Z,27.02
2022-12-14T02:33:19.766Z,23.58
2022-12-14T02:34:56.897Z,23.60
2022-12-14T02:36:08.287Z,21.80
2022-12-14T02:37:49.730Z,24.17
2022-12-14T02:39:03.144Z,22.00
2022-12-14T02:40:11.576Z,22.60
2022-12-14T02:41:40.948Z,24.15
2022-12-14T02:43:01.180Z,25.13
2022-12-14T02:44:15.902Z,22.40
2022-12-14T02:45:26.430Z,23.45
2022-12-14T02:46:30.137Z,24.52
2022-12-14T02:47:41.463Z,25.25
2022-12-14T02:48:49.865Z,26.17
2022-12-14T02:50:22.784Z,24.70
2022-12-14T02:51:37.483Z,21.67
2022-12-14T02:53:00.360Z,22.88
2022-12-14T02:54:08.502Z,21.40
2022-12-14T02:55:36.603Z,25.85
2022-12-14T02:56:52.012Z,21.52
2022-12-14T02:58:00.506Z,24.13
2022-12-14T02:59:04.023Z,24.15
2022-12-14T03:00:07.558Z,24.23
2022-12-14T03:01:14.741Z,25.83
2022-12-14T03:02:18.120Z,25.65
2022-12-14T03:03:21.110Z,24.38
2022-12-14T03:04:24.483Z,26.10
2022-12-14T03:05:27.321Z,24.60
2022-12-14T03:06:30.415Z,26.65
2022-12-14T03:07:36.929Z,25.48
2022-12-14T03:08:39.833Z,24.02
2022-12-14T03:09:42.670Z,24.42
2022-12-14T03:11:00.479Z,26.33
2022-12-14T03:12:09.246Z,25.83
2022-12-14T03:13:15.945Z,24.20
2022-12-14T03:14:32.234Z,26.10
2022-12-14T03:15:37.272Z,25.45
2022-12-14T03:16:46.467Z,24.48
2022-12-14T03:17:52.255Z,28.05
2022-12-14T03:19:24.207Z,27.13
2022-12-14T03:20:29.666Z,25.52
2022-12-14T03:21:35.336Z,25.13
2022-12-14T03:23:16.067Z,26.80
2022-12-14T03:24:26.320Z,24.33
2022-12-14T03:25:38.644Z,25.80
2022-12-14T03:26:52.046Z,26.38
2022-12-14T03:28:05.605Z,28.60
2022-12-14T03:29:11.477Z,26.20
2022-12-14T03:30:23.714Z,26.20
2022-12-14T03:31:56.562Z,24.73
2022-12-14T03:33:03.894Z,27.10
2022-12-14T03:34:13.488Z,27.10
2022-12-14T03:35:39.447Z,26.65
2022-12-14T03:36:55.864Z,25.25
2022-12-14T03:38:13.631Z,24.85
2022-12-14T03:39:26.098Z,27.83
2022-12-14T03:40:34.921Z,26.77
2022-12-14T03:42:07.473Z,28.55
2022-12-14T03:43:28.209Z,26.15
2022-12-14T03:44:49.065Z,26.00
2022-12-14T03:46:13.928Z,28.35
2022-12-14T03:47:16.518Z,26.20
2022-12-14T03:48:40.344Z,25.80
2022-12-14T03:50:18.175Z,25.27
2022-12-14T03:51:39.308Z,24.80
2022-12-14T03:53:26.335Z,26.52
2022-12-14T03:54:32.023Z,24.02
2022-12-14T03:55:46.504Z,25.17
2022-12-14T03:57:03.070Z,23.75
2022-12-14T03:58:33.182Z,23.67
2022-12-14T03:59:39.978Z,22.10
2022-12-14T04:01:02.938Z,26.73
2022-12-14T04:02:11.871Z,24.63
2022-12-14T04:03:32.276Z,27.20
2022-12-14T04:04:44.943Z,23.35
2022-12-14T04:05:57.328Z,25.27
2022-12-14T04:07:11.073Z,25.17
2022-12-14T04:08:23.434Z,25.83
2022-12-14T04:09:26.056Z,24.23
2022-12-14T04:11:00.142Z,24.58
2022-12-14T04:12:57.116Z,23.85
2022-12-14T04:14:32.741Z,23.95
2022-12-14T04:15:54.828Z,24.55
2022-12-14T04:17:16.842Z,26.02
2022-12-14T04:18:44.078Z,27.10
2022-12-14T04:19:52.081Z,22.75
2022-12-14T04:21:26.061Z,25.80
2022-12-14T04:22:31.239Z,22.50
2022-12-14T04:23:57.465Z,26.00
2022-12-14T04:25:25.014Z,25.10
2022-12-14T04:26:30.516Z,22.63
2022-12-14T04:27:50.457Z,23.73
2022-12-14T04:29:25.927Z,24.83
2022-12-14T04:30:29.918Z,23.95
2022-12-14T04:31:34.202Z,25.00
2022-12-14T04:32:39.767Z,24.77
2022-12-14T04:33:47.576Z,26.20
2022-12-14T04:35:04.049Z,26.00
2022-12-14T04:36:07.372Z,23.48
2022-12-14T04:37:14.413Z,26.77
2022-12-14T04:38:22.511Z,26.48
2022-12-14T04:39:46.036Z,24.80
2022-12-14T04:40:52.607Z,25.23
2022-12-14T04:41:56.748Z,24.88
2022-12-14T04:43:06.071Z,25.35
2022-12-14T04:44:37.037Z,26.75
2022-12-14T04:46:47.208Z,23.52
2022-12-14T04:47:56.831Z,26.65
2022-12-14T04:49:12.476Z,25.15
2022-12-14T04:50:30.083Z,25.40
2022-12-14T04:51:38.656Z,26.40
2022-12-14T04:52:46.700Z,23.45
2022-12-14T04:53:53.458Z,25.70
2022-12-14T04:55:20.926Z,24.67
2022-12-14T04:56:29.982Z,24.50
2022-12-14T04:57:46.703Z,25.58
2022-12-14T04:58:49.426Z,23.40
2022-12-14T04:59:52.798Z,26.83
2022-12-14T05:01:14.098Z,24.95
2022-12-14T05:02:21.986Z,26.48
2022-12-14T05:03:29.106Z,25.85
2022-12-14T05:04:57.938Z,27.38
2022-12-14T05:06:11.999Z,23.80
2022-12-14T05:07:19.016Z,25.45
2022-12-14T05:08:21.707Z,25.77
2022-12-14T05:09:41.040Z,26.17
2022-12-14T05:11:21.885Z,26.42
2022-12-14T05:12:31.141Z,24.83
2022-12-14T05:13:43.283Z,24.73
2022-12-14T05:14:57.342Z,23.67
2022-12-14T05:16:00.455Z,23.67
2022-12-14T05:17:08.843Z,27.80
2022-12-14T05:18:12.455Z,26.42
2022-12-14T05:19:15.804Z,24.27
2022-12-14T05:20:23.215Z,25.60
2022-12-14T05:21:44.438Z,26.33
2022-12-14T05:22:47.241Z,24.77
2022-12-14T05:23:49.979Z,26.80
2022-12-14T05:24:52.756Z,28.65
2022-12-14T05:25:55.658Z,27.20
2022-12-14T05:26:58.373Z,28.08
2022-12-14T05:28:01.184Z,26.38
2022-12-14T05:29:04.012Z,28.00
2022-12-14T05:30:07.350Z,29.48
2022-12-14T05:31:10.351Z,28.25
2022-12-14T05:32:13.758Z,27.67
2022-12-14T05:33:20.721Z,28.38
2022-12-14T05:34:23.794Z,26.60
2022-12-14T05:35:26.568Z,30.38
2022-12-14T05:36:29.488Z,28.58
2022-12-14T05:37:32.464Z,27.15
2022-12-14T05:38:35.065Z,27.65
2022-12-14T05:39:37.700Z,23.23
2022-12-14T05:40:40.518Z,27.95
2022-12-14T05:41:43.445Z,29.58
2022-12-14T05:42:49.848Z,27.35
2022-12-14T05:43:56.699Z,25.23
2022-12-14T05:44:59.416Z,26.15
2022-12-14T05:46:04.133Z,29.13
2022-12-14T05:47:06.787Z,30.95
2022-12-14T05:48:09.885Z,31.77
2022-12-14T05:49:12.676Z,27.58
2022-12-14T05:50:15.402Z,27.98
2022-12-14T05:51:18.090Z,27.15
2022-12-14T05:52:20.737Z,30.00
2022-12-14T05:53:23.762Z,25.38
2022-12-14T05:54:26.503Z,26.90
2022-12-14T05:55:29.126Z,27.35
2022-12-14T05:56:32.082Z,26.05
2022-12-14T05:57:34.682Z,27.73
2022-12-14T05:58:38.065Z,26.48
2022-12-14T05:59:40.683Z,27.80
2022-12-14T06:00:43.447Z,29.02
2022-12-14T06:01:50.011Z,28.08
2022-12-14T06:02:55.611Z,27.30
2022-12-14T06:03:58.446Z,26.92
2022-12-14T06:05:01.096Z,28.35
2022-12-14T06:06:09.210Z,26.58
2022-12-14T06:07:12.657Z,27.42
2022-12-14T06:08:15.369Z,26.83
2022-12-14T06:09:18.710Z,29.77
2022-12-14T06:10:21.465Z,29.73
2022-12-14T06:11:24.404Z,29.38
2022-12-14T06:12:27.040Z,27.25
2022-12-14T06:13:30.039Z,26.67
2022-12-14T06:14:33.079Z,31.20
2022-12-14T06:15:35.761Z,28.45
2022-12-14T06:16:43.092Z,28.88
2022-12-14T06:17:46.719Z,29.38
2022-12-14T06:18:53.839Z,26.65
2022-12-14T06:19:56.491Z,28.23
2022-12-14T06:20:59.132Z,29.25
2022-12-14T06:22:01.884Z,28.85
2022-12-14T06:23:04.599Z,25.90
2022-12-14T06:24:07.765Z,27.63
2022-12-14T06:25:10.572Z,28.02
2022-12-14T06:26:14.247Z,27.70
2022-12-14T06:27:17.135Z,27.60
2022-12-14T06:28:19.712Z,24.33
2022-12-14T06:29:22.464Z,27.05
2022-12-14T06:30:25.246Z,24.48
2022-12-14T06:31:30.428Z,26.10
2022-12-14T06:32:33.201Z,26.40
2022-12-14T06:33:36.110Z,25.38
2022-12-14T06:34:40.756Z,26.23
2022-12-14T06:35:46.127Z,25.38
2022-12-14T06:36:48.774Z,26.75
2022-12-14T06:37:51.401Z,27.17
2022-12-14T06:38:55.383Z,23.98
2022-12-14T06:39:58.814Z,28.13
2022-12-14T06:41:01.511Z,26.08
2022-12-14T06:42:04.873Z,24.80
2022-12-14T06:43:07.507Z,26.95
2022-12-14T06:44:13.564Z,26.10
2022-12-14T06:45:16.375Z,23.48
2022-12-14T06:46:21.149Z,26.55
2022-12-14T06:47:23.974Z,23.70
2022-12-14T06:48:26.588Z,25.17
2022-12-14T06:49:29.309Z,26.60
2022-12-14T06:50:31.968Z,24.90
2022-12-14T06:51:40.810Z,25.40
2022-12-14T06:52:43.558Z,24.85
2022-12-14T06:53:46.783Z,24.92
2022-12-14T06:54:49.820Z,24.45
2022-12-14T06:55:52.410Z,26.83
2022-12-14T06:56:55.189Z,24.35
2022-12-14T06:57:57.863Z,25.60
2022-12-14T06:59:00.471Z,23.73
2022-12-14T07:00:03.802Z,24.65
2022-12-14T07:01:11.101Z,23.77
2022-12-14T07:02:14.145Z,25.63
2022-12-14T07:03:17.270Z,24.58
2022-12-14T07:04:21.557Z,26.30
2022-12-14T07:05:25.284Z,21.95
2022-12-14T07:06:34.014Z,25.02
2022-12-14T07:07:37.019Z,26.13
2022-12-14T07:08:40.155Z,24.42
2022-12-14T07:09:42.900Z,24.83
2022-12-14T07:10:45.597Z,22.80
2022-12-14T07:11:51.107Z,21.90
2022-12-14T07:12:54.087Z,22.13
2022-12-14T07:13:57.319Z,21.58
2022-12-14T07:14:59.978Z,22.63
2022-12-14T07:16:04.940Z,22.92
2022-12-14T07:17:07.647Z,21.85
2022-12-14T07:18:10.653Z,23.13
2022-12-14T07:19:13.257Z,22.27
2022-12-14T07:20:16.112Z,23.58
2022-12-14T07:21:20.654Z,23.20
2022-12-14T07:22:23.277Z,24.88
2022-12-14T07:23:28.278Z,22.50
2022-12-14T07:24:31.317Z,24.45
2022-12-14T07:25:34.017Z,25.30
2022-12-14T07:26:37.528Z,24.52
2022-12-14T07:27:40.192Z,25.55
2022-12-14T07:28:43.510Z,27.15
2022-12-14T07:29:46.219Z,24.77
2022-12-14T07:30:48.943Z,25.98
2022-12-14T07:31:51.720Z,25.42
2022-12-14T07:32:54.480Z,24.58
2022-12-14T07:33:58.719Z,25.10
2022-12-14T07:35:01.509Z,26.05
2022-12-14T07:36:07.435Z,24.85
2022-12-14T07:37:10.220Z,26.83
2022-12-14T07:38:12.991Z,22.95
2022-12-14T07:39:15.763Z,23.60
2022-12-14T07:40:18.489Z,23.55
2022-12-14T07:41:23.846Z,24.42
2022-12-14T07:42:26.499Z,26.27
2022-12-14T07:43:29.676Z,24.35
2022-12-14T07:44:32.584Z,24.75
2022-12-14T07:45:35.245Z,22.27
2022-12-14T07:46:38.351Z,23.60
2022-12-14T07:47:41.085Z,24.83
2022-12-14T07:48:45.504Z,25.52
2022-12-14T07:49:48.267Z,23.42
2022-12-14T07:50:51.084Z,24.45
2022-12-14T07:51:53.958Z,25.00
2022-12-14T07:52:59.298Z,24.05
2022-12-14T07:54:03.502Z,23.80
2022-12-14T07:55:06.706Z,23.92
2022-12-14T07:56:12.686Z,25.27
2022-12-14T07:57:16.256Z,23.77
2022-12-14T07:58:18.855Z,27.00
2022-12-14T07:59:21.517Z,23.15
2022-12-14T08:00:24.269Z,25.02
2022-12-14T08:01:32.482Z,26.88
2022-12-14T08:02:35.360Z,23.73
2022-12-14T08:03:42.015Z,24.02
2022-12-14T08:04:44.744Z,23.95
2022-12-14T08:05:47.359Z,25.15
2022-12-14T08:06:50.152Z,22.33
2022-12-14T08:07:52.976Z,22.33
2022-12-14T08:08:55.959Z,25.45
2022-12-14T08:09:58.725Z,23.63
2022-12-14T08:11:01.802Z,24.30
2022-12-14T08:12:04.766Z,23.92
2022-12-14T08:13:07.334Z,22.33
2022-12-14T08:14:19.364Z,24.05
2022-12-14T08:15:22.011Z,22.48
2022-12-14T08:16:25.611Z,23.85
2022-12-14T08:17:28.412Z,21.92
2022-12-14T08:18:31.510Z,24.13
2022-12-14T08:19:34.102Z,23.75
2022-12-14T08:20:36.919Z,23.95
2022-12-14T08:21:40.110Z,24.40
2022-12-14T08:22:42.730Z,24.17
2022-12-14T08:23:45.329Z,25.15
2022-12-14T08:24:49.324Z,23.33
2022-12-14T08:25:56.476Z,25.05
2022-12-14T08:26:59.257Z,25.60
2022-12-14T08:28:02.737Z,25.25
2022-12-14T08:29:05.901Z,24.85
2022-12-14T08:30:09.214Z,24.30
2022-12-14T08:31:17.217Z,24.30
2022-12-14T08:32:20.297Z,26.90
2022-12-14T08:33:23.729Z,24.33
2022-12-14T08:34:26.499Z,23.70
2022-12-14T08:35:29.202Z,24.77
2022-12-14T08:36:34.395Z,23.42
2022-12-14T08:37:37.186Z,27.08
2022-12-14T08:38:41.057Z,24.73
2022-12-14T08:39:43.732Z,25.00
2022-12-14T08:40:52.153Z,26.17
2022-12-14T08:41:55.605Z,25.88
2022-12-14T08:42:58.264Z,27.75
2022-12-14T08:44:02.131Z,26.45
2022-12-14T08:45:05.297Z,26.17
2022-12-14T08:46:09.345Z,28.70
2022-12-14T08:47:12.211Z,26.38
2022-12-14T08:48:14.853Z,28.60
2022-12-14T08:49:17.459Z,28.83
2022-12-14T08:50:20.114Z,27.30
2022-12-14T08:51:24.310Z,27.58
2022-12-14T08:52:28.337Z,26.23
2022-12-14T08:53:32.250Z,26.75
2022-12-14T08:54:35.580Z,26.58
2022-12-14T08:55:38.625Z,26.90
2022-12-14T08:56:41.653Z,26.98
2022-12-14T08:57:44.327Z,28.05
2022-12-14T08:58:47.363Z,28.98
2022-12-14T09:00:01.445Z,28.98
2022-12-14T09:01:09.925Z,26.65
2022-12-14T09:02:12.992Z,28.02
2022-12-14T09:03:16.816Z,27.42
2022-12-14T09:04:20.115Z,25.73
2022-12-14T09:05:23.072Z,27.98
2022-12-14T09:06:27.928Z,25.92
2022-12-14T09:07:31.169Z,26.88
2022-12-14T09:08:35.053Z,26.42
2022-12-14T09:09:37.798Z,27.98
2022-12-14T09:10:40.551Z,28.55
2022-12-14T09:11:43.979Z,30.02
2022-12-14T09:12:46.670Z,29.35
2022-12-14T09:13:52.873Z,29.15
2022-12-14T09:14:55.495Z,28.42
2022-12-14T09:16:00.359Z,28.55
2022-12-14T09:17:04.222Z,27.33
2022-12-14T09:18:06.973Z,30.17
2022-12-14T09:19:09.668Z,29.67
2022-12-14T09:20:13.713Z,28.02
2022-12-14T09:21:18.087Z,27.90
2022-12-14T09:22:21.740Z,27.40
2022-12-14T09:23:26.590Z,26.60
2022-12-14T09:24:29.784Z,26.98
2022-12-14T09:25:32.449Z,30.10
2022-12-14T09:26:35.154Z,27.83
2022-12-14T09:27:37.889Z,28.80
2022-12-14T09:28:42.228Z,28.67
2022-12-14T09:29:44.855Z,29.33
2022-12-14T09:30:47.544Z,28.38
2022-12-14T09:31:50.381Z,30.05
2022-12-14T09:32:53.339Z,26.58
2022-12-14T09:33:56.980Z,27.95
2022-12-14T09:34:59.638Z,25.95
2022-12-14T09:36:11.955Z,26.90
2022-12-14T09:37:14.548Z,26.52
2022-12-14T09:38:17.170Z,25.85
2022-12-14T09:39:19.876Z,25.63
2022-12-14T09:40:24.834Z,26.58
2022-12-14T09:41:36.520Z,28.15
2022-12-14T09:42:39.184Z,25.67
2022-12-14T09:43:44.433Z,28.92
2022-12-14T09:44:59.047Z,27.20
2022-12-14T09:46:35.948Z,26.70
2022-12-14T09:48:02.439Z,26.73
2022-12-14T09:49:05.313Z,26.75
2022-12-14T09:50:14.549Z,25.90
2022-12-14T09:51:18.896Z,28.73
2022-12-14T09:52:40.162Z,28.60
2022-12-14T09:53:44.761Z,28.50
2022-12-14T09:54:49.955Z,29.77
2022-12-14T09:55:55.636Z,26.70
2022-12-14T09:57:11.753Z,30.35
2022-12-14T09:58:17.176Z,28.65
2022-12-14T09:59:21.195Z,27.88
2022-12-14T10:00:23.818Z,28.85
2022-12-14T10:01:35.729Z,29.42
2022-12-14T10:03:00.427Z,27.75
2022-12-14T10:04:09.846Z,30.15
2022-12-14T10:05:18.081Z,28.45
2022-12-14T10:06:43.387Z,34.58
2022-12-14T10:07:56.317Z,28.88
2022-12-14T10:09:36.066Z,28.45
2022-12-14T10:10:53.482Z,31.20
2022-12-14T10:12:33.950Z,31.50
2022-12-14T10:13:39.668Z,27.50
2022-12-14T10:15:09.064Z,26.40
2022-12-14T10:16:32.302Z,27.98
2022-12-14T10:17:46.641Z,28.23
2022-12-14T10:19:00.522Z,27.88
2022-12-14T10:20:30.065Z,27.42
2022-12-14T10:21:57.844Z,26.23
2022-12-14T10:23:02.134Z,25.27
2022-12-14T10:24:06.403Z,26.33
2022-12-14T10:25:11.803Z,27.33
2022-12-14T10:26:17.174Z,26.65
2022-12-14T10:27:24.838Z,28.55
2022-12-14T10:29:01.403Z,26.30
2022-12-14T10:30:15.111Z,29.25
2022-12-14T10:31:35.350Z,26.25
2022-12-14T10:32:40.071Z,27.60
2022-12-14T10:33:46.592Z,28.65
2022-12-14T10:34:49.404Z,28.60
2022-12-14T10:35:54.385Z,30.05
2022-12-14T10:37:12.236Z,29.73
2022-12-14T10:38:52.782Z,29.40
2022-12-14T10:40:27.483Z,30.25
2022-12-14T10:41:44.093Z,27.92
2022-12-14T10:43:29.949Z,25.92
2022-12-14T10:45:39.662Z,28.23
2022-12-14T10:46:49.136Z,28.05
2022-12-14T10:48:00.570Z,26.45
2022-12-14T10:49:11.855Z,24.08
2022-12-14T10:50:20.512Z,29.17
2022-12-14T10:51:39.431Z,28.73
2022-12-14T10:52:43.421Z,28.02
2022-12-14T10:54:03.834Z,28.60
2022-12-14T10:55:15.506Z,27.35
2022-12-14T10:56:26.198Z,26.00
2022-12-14T10:58:32.712Z,27.27
2022-12-14T10:59:43.702Z,25.90
2022-12-14T11:00:54.969Z,24.60
2022-12-14T11:02:14.120Z,26.95
2022-12-14T11:03:17.060Z,25.90
2022-12-14T11:04:29.958Z,29.33
2022-12-14T11:05:46.038Z,26.90
2022-12-14T11:06:48.890Z,27.88
2022-12-14T11:07:51.739Z,29.55
2022-12-14T11:08:55.758Z,29.08
2022-12-14T11:10:19.054Z,27.42
2022-12-14T11:11:24.503Z,25.10
2022-12-14T11:12:27.606Z,34.17
2022-12-14T11:13:30.407Z,28.60
2022-12-14T11:14:35.885Z,27.98
2022-12-14T11:15:42.882Z,27.73
2022-12-14T11:16:45.610Z,32.03
2022-12-14T11:17:48.732Z,27.30
2022-12-14T11:18:59.473Z,29.38
2022-12-14T11:21:31.040Z,24.73
2022-12-14T11:22:45.187Z,24.83
2022-12-14T11:23:54.595Z,24.17
2022-12-14T11:24:57.233Z,25.55
2022-12-14T11:26:05.296Z,25.35
2022-12-14T11:27:10.560Z,24.80
2022-12-14T11:28:37.770Z,25.10
2022-12-14T11:29:41.367Z,26.08
2022-12-14T11:31:03.152Z,24.70
2022-12-14T11:32:06.638Z,25.17
2022-12-14T11:33:16.716Z,26.70
2022-12-14T11:34:28.951Z,24.38
2022-12-14T11:35:31.666Z,25.15
2022-12-14T11:36:41.450Z,25.50
2022-12-14T11:37:44.199Z,24.30
2022-12-14T11:38:56.004Z,24.48
2022-12-14T11:40:04.197Z,24.77
2022-12-14T11:41:11.606Z,26.88
2022-12-14T11:42:19.468Z,25.75
2022-12-14T11:43:30.307Z,26.70
2022-12-14T11:45:39.347Z,23.70
2022-12-14T11:46:51.518Z,24.80
2022-12-14T11:48:10.841Z,25.20
2022-12-14T11:49:23.724Z,26.02
2022-12-14T11:50:26.490Z,24.23
2022-12-14T11:51:29.308Z,26.60
2022-12-14T11:52:38.000Z,25.00
2022-12-14T11:53:41.664Z,21.83
2022-12-14T11:55:03.068Z,22.70
2022-12-14T11:56:09.036Z,22.17
2022-12-14T11:57:14.460Z,20.92
2022-12-14T11:58:24.189Z,22.45
2022-12-14T11:59:33.421Z,18.88
2022-12-14T12:01:11.433Z,21.63
2022-12-14T12:02:38.151Z,21.27
2022-12-14T12:03:49.680Z,21.50
2022-12-14T12:05:18.540Z,22.50
2022-12-14T12:06:30.382Z,23.80
2022-12-14T12:07:35.435Z,20.70
2022-12-14T12:08:40.363Z,24.45
2022-12-14T12:09:43.217Z,21.42
2022-12-14T12:10:51.146Z,22.13
2022-12-14T12:11:54.134Z,22.85
2022-12-14T12:13:00.238Z,23.10
2022-12-14T12:14:34.208Z,21.88
2022-12-14T12:15:58.677Z,20.90
2022-12-14T12:17:01.614Z,22.70
2022-12-14T12:18:41.666Z,23.70
2022-12-14T12:19:49.062Z,21.48
2022-12-14T12:20:57.528Z,20.90
2022-12-14T12:22:01.294Z,21.33
2022-12-14T12:23:10.073Z,22.38
2022-12-14T12:24:21.217Z,21.77
2022-12-14T12:25:28.450Z,21.20
2022-12-14T12:26:35.026Z,20.35
2022-12-14T12:27:38.769Z,21.08
2022-12-14T12:28:48.504Z,19.88
2022-12-14T12:29:55.735Z,19.60
2022-12-14T12:31:10.371Z,20.38
2022-12-14T12:32:14.793Z,19.98
2022-12-14T12:33:49.663Z,20.65
2022-12-14T12:34:54.407Z,18.17
2022-12-14T12:36:01.865Z,16.13
2022-12-14T12:37:27.708Z,19.15
2022-12-14T12:39:03.626Z,21.92
2022-12-14T12:40:26.903Z,16.65
2022-12-14T12:41:48.189Z,18.50
2022-12-14T12:43:32.488Z,17.25
2022-12-14T12:44:52.809Z,18.08
2022-12-14T12:46:19.092Z,19.05
2022-12-14T12:47:49.810Z,17.95
2022-12-14T12:49:03.326Z,18.75
2022-12-14T12:50:14.199Z,18.40
2022-12-14T12:51:23.262Z,19.90
2022-12-14T12:52:31.064Z,19.48
2022-12-14T12:53:43.871Z,19.00
2022-12-14T12:54:57.368Z,19.55
2022-12-14T12:56:22.531Z,17.55
2022-12-14T12:57:29.953Z,17.85
2022-12-14T12:58:34.159Z,16.75
2022-12-14T12:59:49.281Z,18.20
2022-12-14T13:00:55.637Z,15.23
2022-12-14T13:02:02.686Z,16.40
2022-12-14T13:03:23.216Z,17.67
2022-12-14T13:04:33.746Z,17.90
2022-12-14T13:05:48.284Z,16.52
2022-12-14T13:07:25.891Z,15.30
2022-12-14T13:08:33.806Z,17.23
2022-12-14T13:09:48.552Z,19.80
2022-12-14T13:12:27.795Z,16.05
2022-12-14T13:13:33.166Z,14.32
2022-12-14T13:14:39.676Z,17.35
2022-12-14T13:16:00.259Z,15.77
2022-12-14T13:17:05.397Z,13.80
2022-12-14T13:18:49.197Z,15.20
2022-12-14T13:19:52.067Z,15.52
2022-12-14T13:20:57.340Z,15.48
2022-12-14T13:22:05.206Z,14.93
2022-12-14T13:23:36.555Z,15.88
2022-12-14T13:24:33.737Z,16.73
2022-12-14T13:25:48.499Z,14.77
2022-12-14T13:27:04.658Z,14.57
2022-12-14T13:28:19.087Z,16.33
2022-12-14T13:29:40.239Z,17.70
2022-12-14T13:31:29.983Z,16.10
2022-12-14T13:32:56.374Z,15.27
2022-12-14T13:34:23.376Z,16.25
2022-12-14T13:35:39.554Z,16.13
2022-12-14T13:36:45.999Z,15.55
2022-12-14T13:38:14.377Z,16.17
2022-12-14T13:39:22.945Z,13.95
2022-12-14T13:40:28.588Z,17.15
2022-12-14T13:41:50.843Z,17.02
2022-12-14T13:43:07.965Z,16.27
2022-12-14T13:44:43.360Z,17.92
2022-12-14T13:45:49.788Z,16.08
2022-12-14T13:47:01.274Z,16.95
2022-12-14T13:48:22.361Z,15.63
2022-12-14T13:49:25.594Z,14.07
2022-12-14T13:50:38.444Z,16.08
2022-12-14T13:51:49.961Z,16.42
2022-12-14T13:52:58.683Z,15.43
2022-12-14T13:54:04.201Z,15.38
2022-12-14T13:55:39.932Z,15.45
2022-12-14T13:56:42.554Z,16.48
2022-12-14T13:57:45.312Z,15.88
2022-12-14T13:58:49.079Z,14.55
2022-12-14T13:59:54.157Z,16.95
2022-12-14T14:00:58.133Z,15.13
2022-12-14T14:02:02.365Z,16.02
2022-12-14T14:03:05.857Z,17.05
2022-12-14T14:04:11.779Z,13.95
2022-12-14T14:05:20.338Z,15.70
2022-12-14T14:06:39.994Z,16.35
2022-12-14T14:07:50.390Z,15.20
2022-12-14T14:08:53.971Z,14.15
2022-12-14T14:09:58.577Z,17.20
2022-12-14T14:11:38.159Z,16.63
2022-12-14T14:12:44.060Z,14.35
2022-12-14T14:13:50.465Z,13.75
2022-12-14T14:14:56.605Z,16.55
2022-12-14T14:16:27.410Z,13.60
2022-12-14T14:17:44.408Z,12.43
2022-12-14T14:18:49.451Z,18.50
2022-12-14T14:19:56.471Z,15.95
2022-12-14T14:21:20.106Z,15.52
2022-12-14T14:22:27.659Z,14.73
2022-12-14T14:23:32.766Z,15.88
2022-12-14T14:25:12.479Z,16.33
2022-12-14T14:26:22.703Z,14.45
2022-12-14T14:27:35.717Z,16.98
2022-12-14T14:28:38.819Z,15.93
2022-12-14T14:29:49.419Z,15.88
2022-12-14T14:30:54.900Z,16.90
2022-12-14T14:32:02.488Z,16.40
2022-12-14T14:33:44.998Z,14.18
2022-12-14T14:34:52.213Z,15.85
2022-12-14T14:36:27.226Z,17.40
2022-12-14T14:37:35.283Z,16.85
2022-12-14T14:38:38.509Z,16.27
2022-12-14T14:40:02.615Z,16.17
2022-12-14T14:41:21.151Z,17.23
2022-12-14T14:42:26.104Z,16.60
2022-12-14T14:43:38.168Z,16.60
2022-12-14T14:44:46.864Z,16.35
2022-12-14T14:45:54.770Z,17.50
2022-12-14T14:46:57.692Z,16.48
2022-12-14T14:48:02.443Z,16.15
2022-12-14T14:49:13.047Z,15.13
2022-12-14T14:50:17.021Z,15.90
2022-12-14T14:51:25.788Z,16.13
2022-12-14T14:52:40.475Z,17.98
2022-12-14T14:53:43.363Z,15.73
2022-12-14T14:55:16.203Z,16.17
2022-12-14T14:56:34.628Z,17.38
2022-12-14T14:57:56.812Z,17.77
2022-12-14T14:59:17.736Z,16.50